Map

Track Data

SID SEASON NUMBER BASIN SUBBASIN NAME ISO_TIME NATURE LAT LON WMO_WIND WMO_PRES WMO_AGENCY TRACK_TYPE DIST2LAND LANDFALL IFLAG USA_AGENCY USA_ATCF_ID USA_LAT USA_LON USA_RECORD USA_STATUS USA_WIND USA_PRES USA_SSHS USA_R34_NE USA_R34_SE USA_R34_SW USA_R34_NW USA_R50_NE USA_R50_SE USA_R50_SW USA_R50_NW USA_R64_NE USA_R64_SE USA_R64_SW USA_R64_NW USA_POCI USA_ROCI USA_RMW USA_EYE TOKYO_LAT TOKYO_LON TOKYO_GRADE TOKYO_WIND TOKYO_PRES TOKYO_R50_DIR TOKYO_R50_LONG TOKYO_R50_SHORT TOKYO_R30_DIR TOKYO_R30_LONG TOKYO_R30_SHORT TOKYO_LAND CMA_LAT CMA_LON CMA_CAT CMA_WIND CMA_PRES HKO_LAT HKO_LON HKO_CAT HKO_WIND HKO_PRES NEWDELHI_LAT NEWDELHI_LON NEWDELHI_GRADE NEWDELHI_WIND NEWDELHI_PRES NEWDELHI_CI NEWDELHI_DP NEWDELHI_POCI REUNION_LAT REUNION_LON REUNION_TYPE REUNION_WIND REUNION_PRES REUNION_TNUM REUNION_CI REUNION_RMW REUNION_R34_NE REUNION_R34_SE REUNION_R34_SW REUNION_R34_NW REUNION_R50_NE REUNION_R50_SE REUNION_R50_SW REUNION_R50_NW REUNION_R64_NE REUNION_R64_SE REUNION_R64_SW REUNION_R64_NW BOM_LAT BOM_LON BOM_TYPE BOM_WIND BOM_PRES BOM_TNUM BOM_CI BOM_RMW BOM_R34_NE BOM_R34_SE BOM_R34_SW BOM_R34_NW BOM_R50_NE BOM_R50_SE BOM_R50_SW BOM_R50_NW BOM_R64_NE BOM_R64_SE BOM_R64_SW BOM_R64_NW BOM_ROCI BOM_POCI BOM_EYE BOM_POS_METHOD BOM_PRES_METHOD NADI_LAT NADI_LON NADI_CAT NADI_WIND NADI_PRES WELLINGTON_LAT WELLINGTON_LON WELLINGTON_WIND WELLINGTON_PRES DS824_LAT DS824_LON DS824_STAGE DS824_WIND DS824_PRES TD9636_LAT TD9636_LON TD9636_STAGE TD9636_WIND TD9636_PRES TD9635_LAT TD9635_LON TD9635_WIND TD9635_PRES TD9635_ROCI NEUMANN_LAT NEUMANN_LON NEUMANN_CLASS NEUMANN_WIND NEUMANN_PRES MLC_LAT MLC_LON MLC_CLASS MLC_WIND MLC_PRES USA_GUST BOM_GUST BOM_GUST_PER REUNION_GUST REUNION_GUST_PER USA_SEAHGT USA_SEARAD_NE USA_SEARAD_SE USA_SEARAD_SW USA_SEARAD_NW STORM_SPEED STORM_DIR
1974021S18149 1974 11 SP EA WANDA 1974-01-20 14:00:00 NR -17.7000 148.800 25 1004 bom main 240 238 ______O_______ -1 -17.7000 148.800 20 25 1004 1.50000 45 45 12 123
1974021S18149 1974 11 SP EA WANDA 1974-01-20 15:00:00 NR -17.8060 148.972 main 245 242 ______P_______ -1 -17.8060 148.972 20 25 1003 11 122
1974021S18149 1974 11 SP EA WANDA 1974-01-20 17:00:00 NR -18.0000 149.300 25 1002 bom main 247 241 ______O_______ -1 -18.0000 149.300 20 25 1002 1.50000 45 45 10 122
1974021S18149 1974 11 SP EA WANDA 1974-01-20 18:00:00 TS -18.0700 149.414 main 241 241 ______P__O__O_ -1 -18.0800 149.447 20 25 1002 -18.1000 149.400 TC 25 1002 -18.0000 149.300 TC 25 8 117
1974021S18149 1974 11 SP EA WANDA 1974-01-20 20:00:00 TS -18.1737 149.653 25 1002 bom main 249 249 ______O__P__P_ -1 -18.2000 149.700 20 25 1002 1.50000 -18.1768 149.657 TC 25 1002 -18.1180 149.557 TC 25 45 45 7 113
1974021S18149 1974 11 SP EA WANDA 1974-01-20 21:00:00 TS -18.2121 149.763 main 255 251 ______P__P__P_ -1 -18.2412 149.813 20 25 1002 -18.2127 149.780 TC 25 1002 -18.1727 149.680 TC 25 6 110
1974021S18149 1974 11 SP EA WANDA 1974-01-20 23:00:00 TS -18.2802 149.969 25 1003 bom main 256 256 ______O__P__P_ -1 -18.3000 150.000 20 25 1003 1.50000 -18.2752 150.004 TC 25 1002 -18.2654 149.904 TC 25 45 45 6 110
1974021S18149 1974 11 SP EA WANDA 1974-01-21 00:00:00 TS -18.3129 150.058 main 262 258 ______P__O__O_ -1 -18.3387 150.075 20 25 1003 -18.3000 150.100 TC 25 1003 -18.3000 150.000 TC 25 5 110
1974021S18149 1974 11 SP EA WANDA 1974-01-21 02:00:00 TS -18.3598 150.205 25 1004 bom main 258 258 ______O__P__P_ -1 -18.4000 150.200 20 25 1004 1.50000 -18.3357 150.257 TC 25 1002 -18.3436 150.157 TC 25 45 45 4 106
1974021S18149 1974 11 SP EA WANDA 1974-01-21 03:00:00 TS -18.3699 150.271 main 264 264 ______P__P__P_ -1 -18.4025 150.267 20 25 1003 -18.3499 150.323 TC 25 1002 -18.3574 150.223 TC 25 4 99
1974021S18149 1974 11 SP EA WANDA 1974-01-21 05:00:00 TS -18.3877 150.394 25 1002 bom main 270 270 ______O__P__P_ -1 -18.4000 150.400 20 25 1002 1.50000 -18.3802 150.441 TC 25 1002 -18.3828 150.341 TC 25 45 45 4 102
1974021S18149 1974 11 SP EA WANDA 1974-01-21 06:00:00 TS -18.4085 150.456 main 277 268 ______P__O__O_ -1 -18.4254 150.467 20 25 1002 -18.4000 150.500 TC 25 1002 -18.4000 150.400 TC 25 4 119
1974021S18149 1974 11 SP EA WANDA 1974-01-21 08:00:00 TS -18.4796 150.569 25 1003 bom main 276 276 ______O__P__P_ -1 -18.5000 150.600 20 25 1003 1.50000 -18.4694 150.601 TC 23 1002 -18.4695 150.506 TC 23 45 45 4 124
1974021S18149 1974 11 SP EA WANDA 1974-01-21 09:00:00 TS -18.5178 150.624 main 276 275 ______P__P__P_ -1 -18.5387 150.656 20 25 1003 -18.5073 150.655 TC 22 1003 -18.5073 150.562 TC 22 4 119
1974021S18149 1974 11 SP EA WANDA 1974-01-21 11:00:00 TS -18.5836 150.768 25 1004 bom main 283 283 ______O__P__P_ -1 -18.6000 150.800 20 25 1004 1.50000 -18.5753 150.799 TC 20 1003 -18.5753 150.705 TC 20 45 45 5 110
1974021S18149 1974 11 SP EA WANDA 1974-01-21 12:00:00 TS -18.6026 150.871 main 290 290 ______P__O__O_ -1 -18.6079 150.912 20 25 1004 -18.6000 150.900 TC 20 1004 -18.6000 150.800 TC 20 7 94
1974021S18149 1974 11 SP EA WANDA 1974-01-21 14:00:00 TS -18.6106 151.149 25 1004 bom main 307 307 ______O__P__P_ -1 -18.6000 151.200 20 25 1004 1.50000 -18.6160 151.191 TC 21 1003 -18.6159 151.055 TC 21 45 45 8 91
1974021S18149 1974 11 SP EA WANDA 1974-01-21 15:00:00 TS -18.6101 151.307 main 323 323 ______P__P__P_ -1 -18.6000 151.353 20 25 1003 -18.6152 151.363 TC 22 1003 -18.6151 151.205 TC 22 10 89
1974021S18149 1974 11 SP EA WANDA 1974-01-21 17:00:00 TS -18.6035 151.652 25 1002 bom main 358 358 ______O__P__P_ -1 -18.6000 151.700 20 25 1002 1.50000 -18.6053 151.723 TC 24 1002 -18.6053 151.531 TC 24 45 45 10 89
1974021S18149 1974 11 SP EA WANDA 1974-01-21 18:00:00 TS -18.6000 151.834 main 367 367 ______P__O__O_ -1 -18.6000 151.903 20 25 1002 -18.6000 151.900 TC 25 1002 -18.6000 151.700 TC 25 10 90
1974021S18149 1974 11 SP EA WANDA 1974-01-21 20:00:00 TS -18.6001 152.203 25 1003 bom main 404 404 ______O__P__P_ -1 -18.6000 152.300 20 25 1003 1.50000 -18.6001 152.246 TC 23 1002 -18.6002 152.063 TC 23 45 45 10 90
1974021S18149 1974 11 SP EA WANDA 1974-01-21 21:00:00 TS -18.6001 152.372 main 422 422 ______P__P__P_ -1 -18.6000 152.460 20 25 1003 -18.6001 152.410 TC 22 1003 -18.6002 152.245 TC 22 9 90
1974021S18149 1974 11 SP EA WANDA 1974-01-21 23:00:00 TS -18.6001 152.654 25 1004 bom main 450 450 ______O__P__P_ -1 -18.6000 152.700 20 25 1004 1.50000 -18.6001 152.693 TC 20 1003 -18.6001 152.571 TC 20 45 45 7 90
1974021S18149 1974 11 SP EA WANDA 1974-01-22 00:00:00 TS -18.6000 152.763 main 460 460 ______P__O__O_ -1 -18.6000 152.788 20 25 1004 -18.6000 152.800 TC 20 1004 -18.6000 152.700 TC 20 5 88
1974021S18149 1974 11 SP EA WANDA 1974-01-22 02:00:00 TS -18.5908 152.894 25 1004 bom main 469 469 ______O__P__P_ -1 -18.6000 152.900 20 25 1004 1.50000 -18.5835 152.922 TC 21 1003 -18.5889 152.861 TC 21 45 45 3 85
1974021S18149 1974 11 SP EA WANDA 1974-01-22 03:00:00 TS -18.5855 152.935 main 469 469 ______P__P__P_ -1 -18.5946 152.941 20 25 1003 -18.5773 152.953 TC 22 1003 -18.5848 152.910 TC 22 2 90
1974021S18149 1974 11 SP EA WANDA 1974-01-22 05:00:00 TS -18.5904 152.986 25 1003 bom main 479 479 ______O__P__P_ -1 -18.6000 153.000 20 25 1003 1.50000 -18.5828 152.985 TC 24 1003 -18.5885 152.974 TC 24 45 45 2 110
1974021S18149 1974 11 SP EA WANDA 1974-01-22 06:00:00 TS -18.6085 153.011 main 479 479 ______P__O__O_ -1 -18.6254 153.033 20 25 1003 -18.6000 153.000 TC 25 1003 -18.6000 153.000 TC 25 2 132
1974021S18149 1974 11 SP EA WANDA 1974-01-22 08:00:00 TS -18.6703 153.075 25 1004 bom main 483 483 ______O__P__P_ -1 -18.7000 153.100 20 25 1004 1.50000 -18.6708 153.056 TC 21 1004 -18.6400 153.069 TC 23 45 45 3 138
1974021S18149 1974 11 SP EA WANDA 1974-01-22 09:00:00 TS -18.7059 153.106 main 483 473 ______P__P__P_ -1 -18.7279 153.133 20 25 1004 -18.7200 153.085 TC 20 1004 -18.6700 153.100 TC 22 3 145
1974021S18149 1974 11 SP EA WANDA 1974-01-22 11:00:00 TS -18.7955 153.173 25 1006 bom main 479 479 ______O__P__P_ -1 -18.8000 153.200 20 25 1006 1.50000 -18.8364 153.155 TC 16 1005 -18.7500 153.164 TC 20 45 45 4 146
1974021S18149 1974 11 SP EA WANDA 1974-01-22 12:00:00 TS -18.8529 153.209 main 469 466 ______P__O__O_ -1 -18.8588 153.228 20 25 1005 -18.9000 153.200 TC 15 1006 -18.8000 153.200 TC 20 4 150
1974021S18149 1974 11 SP EA WANDA 1974-01-22 14:00:00 TS -18.9701 153.287 25 1005 bom main 466 466 ______O__P__P_ -1 -19.0000 153.300 20 25 1005 1.50000 -19.0090 153.296 TC 16 1005 -18.9011 153.265 TC 20 45 45 4 147
1974021S18149 1974 11 SP EA WANDA 1974-01-22 15:00:00 TS -19.0312 153.336 main 466 461 ______P__P__P_ -1 -19.0612 153.348 20 25 1004 -19.0699 153.355 TC 17 1005 -18.9624 153.305 TC 20 5 139
1974021S18149 1974 11 SP EA WANDA 1974-01-22 17:00:00 TS -19.1748 153.475 25 1004 bom main 461 461 ______O__P__P_ -1 -19.2000 153.500 20 25 1004 2.00000 -19.2135 153.505 TC 19 1004 -19.1109 153.419 TC 20 45 45 6 136
1974021S18149 1974 11 SP EA WANDA 1974-01-22 18:00:00 TS -19.2622 153.573 main 459 456 ______P__O__O_ -1 -19.2867 153.618 20 25 1004 -19.3000 153.600 TC 20 1004 -19.2000 153.500 TC 20 9 130
1974021S18149 1974 11 SP EA WANDA 1974-01-22 20:00:00 TS -19.4697 153.844 25 1005 bom main 456 456 ______O__P__P_ -1 -19.5000 153.900 20 25 1005 2.00000 -19.5045 153.873 TC 20 1004 -19.4045 153.759 TC 20 45 45 10 130
1974021S18149 1974 11 SP EA WANDA 1974-01-22 21:00:00 TS -19.5887 153.991 main 464 456 ______P__P__P_ -1 -19.6254 154.044 20 25 1005 -19.6203 154.022 TC 20 1004 -19.5203 153.907 TC 20 11 134
1974021S18149 1974 11 SP EA WANDA 1974-01-22 23:00:00 TS -19.8466 154.261 25 1005 bom main 472 464 ______O__P__P_ -1 -19.9000 154.300 20 25 1005 2.00000 -19.8699 154.296 TC 20 1004 -19.7699 154.188 TC 20 45 45 15 126
1974021S18149 1974 11 SP EA WANDA 1974-01-23 00:00:00 TS -20.0333 154.636 main 482 481 O_____P_OOO_O_ jtwc_sh SH191974 -20.6000 155.600 -1 -20.0333 154.393 20 25 1005 -19.0000 155.000 30 997 -20.0000 154.400 TC 20 1005 -20.6000 155.600 2 -19.9000 154.300 TC 20 14 135
1974021S18149 1974 11 SP EA WANDA 1974-01-23 02:00:00 TS -20.3348 154.785 25 1005 bom main 481 470 P_____O_PPP_P_ SH191974 -20.8355 155.324 -1 -20.3000 154.500 20 25 1005 2.00000 -19.4219 154.958 31 995 -20.2531 154.516 TC 21 1004 -20.8319 155.334 2 -20.1586 154.441 TC 21 45 45 10 159
1974021S18149 1974 11 SP EA WANDA 1974-01-23 03:00:00 TS -20.4958 154.821 main 470 454 P_____P_PPP_P_ SH191974 -20.9527 155.188 -1 -20.4333 154.521 20 25 1004 -19.6325 154.935 32 995 -20.3848 154.540 TC 22 1004 -20.9478 155.202 2 -20.2923 154.483 TC 22 9 185
1974021S18149 1974 11 SP EA WANDA 1974-01-23 05:00:00 TS -20.7893 154.745 25 1003 bom main 445 440 P_____O_PPP_P_ SH191974 -21.1851 154.925 -1 -20.7000 154.500 20 25 1003 2.00000 -20.0528 154.880 34 994 -20.6582 154.530 TC 24 1003 -21.1799 154.945 2 -20.5640 154.511 TC 24 45 45 9 197
1974021S18149 1974 11 SP EA WANDA 1974-01-23 06:00:00 TS -20.9274 154.678 main 440 408 O_____P_POP_O_ jtwc_sh SH191974 -21.3000 154.800 -1 -20.8333 154.480 20 26 1002 -20.2621 154.846 35 993 -20.8000 154.500 TC 25 1003 -21.2961 154.822 2 -20.7000 154.500 TC 25 9 206
1974021S18149 1974 11 SP EA WANDA 1974-01-23 08:00:00 TS -21.1993 154.533 30 1002 bom main 408 404 P_____O_PPP_P_ SH191974 -21.5278 154.568 -1 -21.1000 154.400 20 30 1002 2.50000 -20.6786 154.762 36 992 -21.0813 154.401 TC 26 1001 -21.5293 154.589 2 -20.9504 154.445 TC 26 45 45 9 207
1974021S18149 1974 11 SP EA WANDA 1974-01-23 09:00:00 TS -21.3349 154.455 main 404 371 P_____P_PPP_P_ SH191974 -21.6425 154.462 -1 -21.2225 154.341 20 30 1001 -20.8856 154.709 37 991 -21.2276 154.330 TC 27 1001 -21.6463 154.481 2 -21.0775 154.395 TC 27 10 208
1974021S18149 1974 11 SP EA WANDA 1974-01-23 11:00:00 TS -21.6170 154.295 30 1000 bom main 371 358 P_____O_PPP_P_ SH191974 -21.8776 154.278 -1 -21.5000 154.200 20 30 1000 2.50000 -21.2964 154.579 39 990 -21.5360 154.174 TC 29 1000 -21.8816 154.286 2 -21.3495 154.269 TC 29 45 45 10 207
1974021S18149 1974 11 SP EA WANDA 1974-01-23 12:00:00 TS -21.7699 154.219 main 347 312 O_____P_OOO_O_ jtwc_sh SH191974 -22.0000 154.200 -1 -21.6896 154.133 20 30 1000 -21.5000 154.500 40 990 -21.7000 154.100 TC 30 1000 -22.0000 154.200 2 -21.5000 154.200 TC 30 10 203
1974021S18149 1974 11 SP EA WANDA 1974-01-23 14:00:00 TS -22.0910 154.081 30 1000 bom main 312 299 P_____O_PPP_P_ SH191974 -22.2587 154.076 -1 -22.1000 154.000 20 30 1000 2.50000 -21.9030 154.312 40 990 -22.0400 153.987 TC 30 999 -22.2392 154.054 2 -21.8376 154.064 TC 30 45 45 10 201
1974021S18149 1974 11 SP EA WANDA 1974-01-23 15:00:00 TS -22.2518 154.015 main 288 264 P_____P_PPP_P_ SH191974 -22.3924 154.027 -1 -22.2746 153.928 20 30 999 -22.1021 154.205 40 990 -22.2200 153.935 TC 30 999 -22.3608 153.991 2 -22.0201 153.993 TC 30 10 200
1974021S18149 1974 11 SP EA WANDA 1974-01-23 17:00:00 TS -22.5766 153.892 30 999 bom main 253 240 P_____O_PPP_P_ SH191974 -22.6640 153.942 -1 -22.6000 153.800 20 30 999 2.50000 -22.4948 153.978 40 990 -22.6000 153.842 TC 30 999 -22.6105 153.885 2 -22.4031 153.858 TC 30 45 45 10 199
1974021S18149 1974 11 SP EA WANDA 1974-01-23 18:00:00 TS -22.7405 153.837 main 240 205 O_____P_POP_O_ jtwc_sh SH191974 -22.8000 153.900 -1 -22.7558 153.759 20 30 999 -22.6883 153.859 40 990 -22.8000 153.800 TC 30 999 -22.7395 153.839 2 -22.6000 153.800 TC 30 10 197
1974021S18149 1974 11 SP EA WANDA 1974-01-23 20:00:00 TS -23.0688 153.732 30 999 bom main 194 183 P_____O_PPP_P_ SH191974 -23.0504 153.800 -1 -23.1000 153.700 20 30 999 2.50000 -23.0686 153.623 40 990 -23.2229 153.731 TC 30 999 -23.0080 153.755 2 -22.9812 153.717 TC 30 45 45 10 196
1974021S18149 1974 11 SP EA WANDA 1974-01-23 21:00:00 TS -23.2415 153.682 main 183 137 P_____P_PPP_P_ SH191974 -23.1775 153.750 -1 -23.3121 153.667 20 30 999 -23.2552 153.508 40 990 -23.4425 153.700 TC 30 999 -23.1484 153.716 2 -23.1775 153.685 TC 30 11 195
1974021S18149 1974 11 SP EA WANDA 1974-01-23 23:00:00 TS -23.6048 153.586 30 1000 bom main 137 113 P_____O_PPP_P_ SH191974 -23.4495 153.650 -1 -23.8000 153.600 20 30 1000 2.50000 -23.6210 153.295 40 990 -23.8838 153.636 TC 30 999 -23.4440 153.640 2 -23.5859 153.628 TC 30 45 45 11 193
1974021S18149 1974 11 SP EA WANDA 1974-01-24 00:00:00 TS -23.7957 153.538 main 113 70 O_____P_OOO_O_ jtwc_sh SH191974 -23.6000 153.600 -1 -24.0696 153.567 20 31 1000 -23.8000 153.200 40 990 -24.1000 153.600 TC 30 1000 -23.6000 153.600 2 -23.8000 153.600 TC 30 13 192
1974021S18149 1974 11 SP EA WANDA 1974-01-24 02:00:00 TS -24.2263 153.450 35 1000 bom main 70 45 P_____O_PPP_P_ SH191974 -23.9430 153.500 -1 -24.6000 153.500 30 35 1000 2.50000 -24.1659 153.046 40 990 -24.5404 153.524 TC 31 998 -24.0973 153.525 2 -24.2942 153.555 TC 31 49 49 13 191
1974021S18149 1974 11 SP EA WANDA 1974-01-24 03:00:00 TS -24.4417 153.408 main 45 0 P_____P_PPP_P_ SH191974 -24.1275 153.450 -1 -24.8321 153.477 30 38 999 -24.3455 152.979 40 990 -24.7524 153.480 TC 32 998 -24.3623 153.489 2 -24.5449 153.530 TC 32 13 192
1974021S18149 1974 11 SP EA WANDA 1974-01-24 05:00:00 TS -24.8490 153.314 45 997 bom main 0 0 P_____O_PPP_P_ SH191974 -24.5088 153.350 -1 -25.2000 153.400 30 45 997 2.50000 4 -24.6965 152.860 40 990 -25.1368 153.370 TC 34 997 -24.8849 153.414 2 -25.0070 153.456 TC 34 64 64 12 193
1974021S18149 1974 11 SP EA WANDA 1974-01-24 06:00:00 TS -25.0311 153.257 main 0 0 O_____P_POP_O_ jtwc_sh SH191974 -24.7000 153.300 -1 -25.3237 153.316 30 46 997 -24.8670 152.809 40 990 -25.3000 153.300 TC 35 997 -25.1266 153.372 2 -25.2000 153.400 TC 35 11 198
1974021S18149 1974 11 SP EA WANDA 1974-01-24 08:00:00 TS -25.3714 153.127 50 997 bom main 0 0 P_____O_PPP_P_ SH191974 -25.1752 153.217 -1 -25.5000 153.100 30 50 997 -25.1967 152.722 40 990 -25.5529 153.124 TC 35 997 -25.5309 153.276 2 -25.4687 153.232 TC 33 69 69 11 200
1974021S18149 1974 11 SP EA WANDA 1974-01-24 09:00:00 TS -25.5218 153.058 main 0 0 P_____P_PPP_P_ SH191974 -25.3999 153.173 -1 -25.6000 153.000 30 50 997 -25.3550 152.685 40 990 -25.6525 153.022 TC 35 997 -25.6776 153.219 2 -25.5676 153.130 TC 32 9 207
1974021S18149 1974 11 SP EA WANDA 1974-01-24 11:00:00 TS -25.7553 152.909 50 998 bom main 0 0 P_____O_PPP_P_ SH191974 -25.7308 153.068 -1 -25.8000 152.800 30 50 998 -25.6571 152.625 40 990 -25.8215 152.808 TC 35 997 -25.8201 153.082 2 -25.7267 152.910 TC 30 69 69 7 214
1974021S18149 1974 11 SP EA WANDA 1974-01-24 12:00:00 TS -25.8293 152.829 main 0 0 O_____P_OOO_O_ jtwc_sh SH191974 -25.8000 153.000 -1 -25.9054 152.700 30 50 998 -25.8000 152.600 40 990 -25.9000 152.700 TC 35 998 -25.8000 153.000 2 -25.8000 152.800 TC 30 5 235
1974021S18149 1974 11 SP EA WANDA 1974-01-24 14:00:00 TS -25.9048 152.667 50 998 bom main 0 0 P_____O_PPP_P_ SH191974 -25.7827 152.841 -1 -26.1000 152.500 30 50 998 -26.0691 152.561 40 990 -26.0744 152.511 TC 33 998 -25.5556 152.806 2 -25.9690 152.611 TC 28 69 69 5 254
1974021S18149 1974 11 SP EA WANDA 1974-01-24 15:00:00 TS -25.8939 152.581 main 0 0 P_____P_PPP_P_ SH191974 -25.6721 152.746 -1 -26.1691 152.400 30 50 998 -26.1961 152.547 40 990 -26.1573 152.415 TC 32 999 -25.3408 152.696 2 -26.0498 152.515 TC 27 5 296
1974021S18149 1974 11 SP EA WANDA 1974-01-24 17:00:00 TS -25.7847 152.394 50 1000 bom main 0 0 P_____O_PPP_P_ SH191974 -25.2336 152.526 -1 -26.3000 152.200 30 50 1000 -26.4374 152.525 40 990 -26.3192 152.211 TC 30 999 -24.7555 152.456 2 -26.2135 152.311 TC 25 69 69 7 308
1974021S18149 1974 11 SP EA WANDA 1974-01-24 18:00:00 TS -25.6917 152.294 main 0 0 O_____P_POP_O_ jtwc_sh SH191974 -24.9000 152.400 -1 -26.3920 152.111 30 43 1000 -26.5526 152.518 40 990 -26.4000 152.100 TC 30 1000 -24.3970 152.327 2 -26.3000 152.200 TC 25 9 320
1974021S18149 1974 11 SP EA WANDA 1974-01-24 20:00:00 TS -25.4374 152.074 30 1003 bom main 0 0 P_____O_PPP_P_ SH191974 -24.0116 152.120 -1 -26.6000 151.900 20 30 1003 -26.7749 152.508 40 990 -26.5774 151.860 TC 28 1001 -23.5778 152.059 2 -26.5083 151.955 TC 25 45 45 8 306
1974021S18149 1974 11 SP EA WANDA 1974-01-24 21:00:00 TS -25.4534 151.928 main 0 0 P_____P_PPP_P_ SH191974 -23.4805 151.969 -1 -26.7109 151.744 20 30 1003 -26.8829 152.505 40 990 -26.6649 151.730 TC 27 1001 -23.1293 151.920 2 -26.6149 151.823 TC 25 8 261
1974021S18149 1974 11 SP EA WANDA 1974-01-24 23:00:00 TS -25.4987 151.624 30 1003 bom main 0 0 P_____O_PPP_P_ SH191974 -22.3113 151.657 -1 -26.9000 151.400 20 30 1003 -27.0950 152.501 40 990 -26.8280 151.450 TC 25 1002 -22.1843 151.640 2 -26.8145 151.544 TC 25 45 45 14 222
1974021S18149 1974 11 SP EA WANDA 1974-01-25 00:00:00 TS -25.9547 151.429 main 0 0 O_____P_OOO_O_ jtwc_sh SH191974 -21.7000 151.500 -1 -26.9436 151.264 20 26 1003 -27.2000 152.500 40 990 -26.9000 151.300 TC 25 1003 -21.7000 151.500 2 -26.9000 151.400 TC 25 32 199
1974021S18149 1974 11 SP EA WANDA 1974-01-25 02:00:00 TS -27.0175 151.029 20 1003 bom main 0 0 ______O__P__P_ SH191974 -1 -27.0000 151.000 20 20 1003 -27.0201 150.982 TC 26 1002 2 -27.0323 151.105 TC 25 45 45 25 204
1974021S18149 1974 11 SP EA WANDA 1974-01-25 03:00:00 TS -27.0716 150.870 main 0 0 ______P__P__P_ SH191974 -1 -27.0642 150.847 20 20 1002 -27.0704 150.815 TC 27 1002 2 -27.0828 150.955 TC 25 9 250
1974021S18149 1974 11 SP EA WANDA 1974-01-25 05:00:00 TS -27.1781 150.536 20 1001 bom main 0 0 ______O__P__P_ SH191974 -1 -27.2000 150.500 20 20 1001 -27.1589 150.473 TC 29 1001 2 -27.1643 150.652 TC 25 45 45 10 252
1974021S18149 1974 11 SP EA WANDA 1974-01-25 06:00:00 TS -27.2229 150.354 main 0 0 ______P__O__O_ -1 -27.2458 150.307 20 20 1001 -27.2000 150.300 TC 30 1001 2 -27.2000 150.500 TC 25 12 258
1974021S18149 1974 11 SP EA WANDA 1974-01-25 08:00:00 NR -27.3000 149.900 20 1003 bom main 0 ______O_______ -1 -27.3000 149.900 20 20 1003 TC 2 TC 45 45 12 259

Digital Typhoon Data and Search

About IBTrACS Database

This database is a web-friendly format of International Best Track Archive for Climate Stewardship (IBTrACS), a global best track data archive curated by NOAA dating back to 1842.

Updated: 2021-10-08